createdAt,value
2022-09-24T00:00:56.384Z,1003.39
2022-09-24T00:03:29.373Z,1003.39
2022-09-24T00:06:02.397Z,1003.40
2022-09-24T00:08:35.400Z,1003.39
2022-09-24T00:11:08.421Z,1003.39
2022-09-24T00:13:41.410Z,1003.37
2022-09-24T00:16:14.388Z,1003.37
2022-09-24T00:18:47.425Z,1003.36
2022-09-24T00:21:20.423Z,1003.36
2022-09-24T00:23:53.421Z,1003.34
2022-09-24T00:26:26.442Z,1003.34
2022-09-24T00:29:00.404Z,1003.33
2022-09-24T00:31:33.492Z,1003.33
2022-09-24T00:34:06.567Z,1003.32
2022-09-24T00:36:39.419Z,1003.31
2022-09-24T00:39:12.405Z,1003.29
2022-09-24T00:41:45.515Z,1003.28
2022-09-24T00:44:18.383Z,1003.28
2022-09-24T00:46:51.550Z,1003.27
2022-09-24T00:49:24.437Z,1003.24
2022-09-24T00:51:57.459Z,1003.22
2022-09-24T00:54:30.406Z,1003.19
2022-09-24T00:57:03.516Z,1003.17
2022-09-24T00:59:36.204Z,1003.13
2022-09-24T01:02:09.370Z,1003.11
2022-09-24T01:04:42.427Z,1003.07
2022-09-24T01:07:29.422Z,1003.03
2022-09-24T01:10:02.404Z,1002.99
2022-09-24T01:12:35.528Z,1002.94
2022-09-24T01:15:08.438Z,1002.90
2022-09-24T01:17:41.546Z,1002.86
2022-09-24T01:20:14.483Z,1002.83
2022-09-24T01:22:47.503Z,1002.80
2022-09-24T01:25:20.454Z,1002.79
2022-09-24T01:27:53.531Z,1002.80
2022-09-24T01:30:26.574Z,1002.80
2022-09-24T01:32:59.491Z,1002.80
2022-09-24T01:35:32.527Z,1002.79
2022-09-24T01:38:05.491Z,1002.78
2022-09-24T01:40:52.419Z,1002.80
2022-09-24T01:43:25.595Z,1002.78
2022-09-24T01:45:58.559Z,1002.75
2022-09-24T01:48:31.314Z,1002.72
2022-09-24T01:51:04.494Z,1002.70
2022-09-24T01:53:37.486Z,1002.69
2022-09-24T01:56:10.491Z,1002.68
2022-09-24T01:58:43.560Z,1002.67
2022-09-24T02:01:16.674Z,1002.66
2022-09-24T02:03:49.532Z,1002.63
2022-09-24T02:06:22.509Z,1002.60
2022-09-24T02:08:55.546Z,1002.57
2022-09-24T02:11:28.529Z,1002.53
2022-09-24T02:14:01.534Z,1002.49
2022-09-24T02:16:34.665Z,1002.46
2022-09-24T02:19:07.574Z,1002.43
2022-09-24T02:21:40.530Z,1002.43
2022-09-24T02:24:13.497Z,1002.41
2022-09-24T02:26:46.516Z,1002.41
2022-09-24T02:29:19.636Z,1002.41
2022-09-24T02:31:58.483Z,1002.42
2022-09-24T02:34:31.621Z,1002.42
2022-09-24T02:37:04.522Z,1002.43
2022-09-24T02:39:37.613Z,1002.43
2022-09-24T02:42:16.494Z,1002.44
2022-09-24T02:44:49.617Z,1002.44
2022-09-24T02:47:22.547Z,1002.42
2022-09-24T02:49:55.572Z,1002.41
2022-09-24T02:52:28.548Z,1002.40
2022-09-24T02:55:01.599Z,1002.40
2022-09-24T02:57:34.624Z,1002.41
2022-09-24T03:00:07.593Z,1002.43
2022-09-24T03:02:40.492Z,1002.43
2022-09-24T03:05:13.278Z,1002.44
2022-09-24T03:07:46.697Z,1002.44
2022-09-24T03:10:19.658Z,1002.45
2022-09-24T03:13:06.673Z,1002.44
2022-09-24T03:15:39.782Z,1002.43
2022-09-24T03:18:12.632Z,1002.42
2022-09-24T03:20:45.691Z,1002.41
2022-09-24T03:23:18.628Z,1002.39
2022-09-24T03:25:51.740Z,1002.39
2022-09-24T03:28:24.748Z,1002.36
2022-09-24T03:30:57.820Z,1002.33
2022-09-24T03:33:30.595Z,1002.30
2022-09-24T03:36:03.642Z,1002.26
2022-09-24T03:38:36.708Z,1002.24
2022-09-24T03:41:09.682Z,1002.21
2022-09-24T03:43:42.502Z,1002.19
2022-09-24T03:46:16.764Z,1002.18
2022-09-24T03:48:49.724Z,1002.15
2022-09-24T03:51:22.653Z,1002.12
2022-09-24T03:53:55.513Z,1002.11
2022-09-24T03:56:28.680Z,1002.10
2022-09-24T03:59:01.723Z,1002.08
2022-09-24T04:01:34.774Z,1002.05
2022-09-24T04:04:07.785Z,1002.03
2022-09-24T04:06:40.756Z,1002.02
2022-09-24T04:09:27.707Z,1001.99
2022-09-24T04:12:00.742Z,1002.00
2022-09-24T04:14:33.751Z,1002.00
2022-09-24T04:17:06.859Z,1001.99
2022-09-24T04:19:39.798Z,1001.98
2022-09-24T04:22:12.700Z,1001.97
2022-09-24T04:24:45.743Z,1001.97
2022-09-24T04:27:18.749Z,1001.95
2022-09-24T04:29:51.788Z,1001.94
2022-09-24T04:32:24.756Z,1001.96
2022-09-24T04:34:57.813Z,1001.98
2022-09-24T04:37:30.777Z,1001.97
2022-09-24T04:40:03.707Z,1001.94
2022-09-24T04:42:36.807Z,1001.93
2022-09-24T04:45:09.784Z,1001.92
2022-09-24T04:47:42.727Z,1001.91
2022-09-24T04:50:15.741Z,1001.90
2022-09-24T04:55:38.767Z,1001.89
2022-09-24T04:58:11.839Z,1001.90
2022-09-24T05:00:44.608Z,1001.90
2022-09-24T05:03:18.059Z,1001.90
2022-09-24T05:05:50.846Z,1001.89
2022-09-24T05:08:23.745Z,1001.91
2022-09-24T05:10:56.863Z,1001.91
2022-09-24T05:13:29.787Z,1001.91
2022-09-24T05:16:02.835Z,1001.90
2022-09-24T05:18:35.844Z,1001.89
2022-09-24T05:21:08.885Z,1001.90
2022-09-24T05:23:41.669Z,1001.90
2022-09-24T05:26:14.833Z,1001.93
2022-09-24T05:28:47.789Z,1001.95
2022-09-24T05:31:20.958Z,1001.97
2022-09-24T05:33:53.819Z,1001.97
2022-09-24T05:36:26.772Z,1001.98
2022-09-24T05:38:59.890Z,1001.98
2022-09-24T05:41:32.904Z,1002.00
2022-09-24T05:44:05.696Z,1002.02
2022-09-24T05:46:38.984Z,1002.03
2022-09-24T05:49:11.851Z,1002.03
2022-09-24T05:51:44.693Z,1002.06
2022-09-24T05:54:17.816Z,1002.09
2022-09-24T05:56:50.927Z,1002.13
2022-09-24T05:59:23.904Z,1002.15
2022-09-24T06:01:56.946Z,1002.19
2022-09-24T06:04:29.922Z,1002.23
2022-09-24T06:07:02.588Z,1002.24
2022-09-24T06:09:35.660Z,1002.23
2022-09-24T06:12:08.568Z,1002.23
2022-09-24T06:14:41.700Z,1002.24
2022-09-24T06:17:14.882Z,1002.23
2022-09-24T06:19:47.874Z,1002.23
2022-09-24T06:22:25.038Z,1002.22
2022-09-24T06:24:53.641Z,1002.22
2022-09-24T06:27:40.890Z,1002.22
2022-09-24T06:30:13.864Z,1002.23
2022-09-24T06:32:46.888Z,1002.26
2022-09-24T06:35:19.978Z,1002.26
2022-09-24T06:37:52.815Z,1002.26
2022-09-24T06:40:25.856Z,1002.28
2022-09-24T06:42:58.773Z,1002.30
2022-09-24T06:45:31.985Z,1002.33
2022-09-24T06:48:04.961Z,1002.36
2022-09-24T06:50:37.773Z,1002.38
2022-09-24T06:53:13.615Z,1002.40
2022-09-24T06:55:47.111Z,1002.40
2022-09-24T06:58:19.677Z,1002.43
2022-09-24T07:00:52.868Z,1002.45
2022-09-24T07:03:25.906Z,1002.48
2022-09-24T07:05:58.747Z,1002.48
2022-09-24T07:08:31.733Z,1002.51
2022-09-24T07:11:04.852Z,1002.52
2022-09-24T07:13:37.681Z,1002.52
2022-09-24T07:16:10.793Z,1002.52
2022-09-24T07:18:57.678Z,1002.51
2022-09-24T07:21:31.084Z,1002.49
2022-09-24T07:24:03.726Z,1002.48
2022-09-24T07:26:36.748Z,1002.50
2022-09-24T07:29:09.788Z,1002.52
2022-09-24T07:31:43.093Z,1002.55
2022-09-24T07:34:15.679Z,1002.56
2022-09-24T07:36:48.954Z,1002.56
2022-09-24T07:39:21.886Z,1002.58
2022-09-24T07:41:54.771Z,1002.59
2022-09-24T07:44:27.837Z,1002.60
2022-09-24T07:47:00.976Z,1002.60
2022-09-24T07:49:33.840Z,1002.62
2022-09-24T07:52:06.921Z,1002.63
2022-09-24T07:54:39.885Z,1002.67
2022-09-24T07:57:12.740Z,1002.70
2022-09-24T07:59:45.909Z,1002.73
2022-09-24T08:02:19.064Z,1002.77
2022-09-24T08:04:51.907Z,1002.79
2022-09-24T08:07:25.050Z,1002.78
2022-09-24T08:09:57.809Z,1002.78
2022-09-24T08:12:30.921Z,1002.75
2022-09-24T08:15:03.822Z,1002.73
2022-09-24T08:17:36.772Z,1002.71
2022-09-24T08:20:09.767Z,1002.70
2022-09-24T08:22:42.940Z,1002.70
2022-09-24T08:25:15.758Z,1002.70
2022-09-24T08:27:49.983Z,1002.72
2022-09-24T08:30:23.911Z,1002.73
2022-09-24T08:32:56.893Z,1002.74
2022-09-24T08:35:30.079Z,1002.72
2022-09-24T08:38:17.034Z,1002.71
2022-09-24T08:40:50.264Z,1002.70
2022-09-24T08:43:24.154Z,1002.68
2022-09-24T08:45:57.098Z,1002.66
2022-09-24T08:48:30.084Z,1002.67
2022-09-24T08:51:02.958Z,1002.67
2022-09-24T08:53:36.104Z,1002.68
2022-09-24T08:56:08.968Z,1002.67
2022-09-24T08:58:44.556Z,1002.68
2022-09-24T09:01:14.915Z,1002.67
2022-09-24T09:04:02.335Z,1002.68
2022-09-24T09:06:34.950Z,1002.68
2022-09-24T09:09:08.108Z,1002.68
2022-09-24T09:11:41.211Z,1002.69
2022-09-24T09:14:15.137Z,1002.70
2022-09-24T09:16:48.211Z,1002.71
2022-09-24T09:19:34.939Z,1002.73
2022-09-24T09:22:07.957Z,1002.74
2022-09-24T09:24:41.162Z,1002.73
2022-09-24T09:27:13.835Z,1002.72
2022-09-24T09:29:46.851Z,1002.73
2022-09-24T09:32:20.168Z,1002.74
2022-09-24T09:34:53.224Z,1002.76
2022-09-24T09:37:26.416Z,1002.77
2022-09-24T09:39:59.422Z,1002.77
2022-09-24T09:42:33.139Z,1002.76
2022-09-24T09:45:06.053Z,1002.75
2022-09-24T09:47:39.131Z,1002.74
2022-09-24T09:50:27.114Z,1002.72
2022-09-24T09:53:00.064Z,1002.71
2022-09-24T09:55:33.213Z,1002.72
2022-09-24T09:58:05.909Z,1002.72
2022-09-24T10:00:39.207Z,1002.72
2022-09-24T10:03:12.834Z,1002.71
2022-09-24T10:05:46.066Z,1002.72
2022-09-24T10:08:19.048Z,1002.71
2022-09-24T10:10:52.438Z,1002.70
2022-09-24T10:13:25.991Z,1002.69
2022-09-24T10:16:13.140Z,1002.68
2022-09-24T10:18:46.441Z,1002.69
2022-09-24T10:21:23.655Z,1002.70
2022-09-24T10:23:53.280Z,1002.70
2022-09-24T10:26:28.006Z,1002.70
2022-09-24T10:29:01.067Z,1002.68
2022-09-24T10:31:34.182Z,1002.67
2022-09-24T10:34:07.045Z,1002.64
2022-09-24T10:36:39.952Z,1002.63
2022-09-24T10:39:13.043Z,1002.63
2022-09-24T10:41:46.282Z,1002.62
2022-09-24T10:44:19.315Z,1002.59
2022-09-24T10:46:52.063Z,1002.55
2022-09-24T10:49:24.968Z,1002.52
2022-09-24T10:51:58.365Z,1002.48
2022-09-24T10:54:31.077Z,1002.44
2022-09-24T10:57:17.994Z,1002.41
2022-09-24T10:59:51.296Z,1002.38
2022-09-24T11:02:24.110Z,1002.34
2022-09-24T11:04:57.180Z,1002.30
2022-09-24T11:07:30.143Z,1002.29
2022-09-24T11:10:03.186Z,1002.27
2022-09-24T11:12:36.380Z,1002.26
2022-09-24T11:15:09.007Z,1002.24
2022-09-24T11:17:42.019Z,1002.23
2022-09-24T11:20:15.194Z,1002.23
2022-09-24T11:22:48.168Z,1002.24
2022-09-24T11:25:21.091Z,1002.23
2022-09-24T11:27:54.162Z,1002.22
2022-09-24T11:30:27.211Z,1002.24
2022-09-24T11:33:00.122Z,1002.24
2022-09-24T11:35:33.113Z,1002.23
2022-09-24T11:38:06.038Z,1002.21
2022-09-24T11:40:39.354Z,1002.20
2022-09-24T11:43:12.137Z,1002.18
2022-09-24T11:45:45.172Z,1002.18
2022-09-24T11:48:18.126Z,1002.18
2022-09-24T11:50:51.281Z,1002.15
2022-09-24T11:53:24.219Z,1002.12
2022-09-24T11:55:57.411Z,1002.07
2022-09-24T11:58:30.362Z,1002.05
2022-09-24T12:01:03.226Z,1002.04
2022-09-24T12:03:36.266Z,1002.03
2022-09-24T12:06:09.318Z,1002.02
2022-09-24T12:08:42.075Z,1002.00
2022-09-24T12:11:15.098Z,1001.99
2022-09-24T12:13:48.277Z,1001.97
2022-09-24T12:16:21.188Z,1001.94
2022-09-24T12:18:54.111Z,1001.90
2022-09-24T12:21:27.402Z,1001.86
2022-09-24T12:24:03.012Z,1001.82
2022-09-24T12:26:33.347Z,1001.80
2022-09-24T12:29:06.570Z,1001.78
2022-09-24T12:31:39.460Z,1001.75
2022-09-24T12:34:12.210Z,1001.73
2022-09-24T12:36:45.219Z,1001.70
2022-09-24T12:39:18.288Z,1001.67
2022-09-24T12:41:51.171Z,1001.64
2022-09-24T12:44:38.242Z,1001.61
2022-09-24T12:47:11.145Z,1001.59
2022-09-24T12:49:44.336Z,1001.57
2022-09-24T12:52:17.224Z,1001.56
2022-09-24T12:54:50.342Z,1001.55
2022-09-24T12:57:25.934Z,1001.55
2022-09-24T12:59:56.307Z,1001.55
2022-09-24T13:02:29.593Z,1001.55
2022-09-24T13:05:02.207Z,1001.53
2022-09-24T13:07:35.454Z,1001.51
2022-09-24T13:10:08.266Z,1001.49
2022-09-24T13:12:44.329Z,1001.48
2022-09-24T13:15:17.327Z,1001.47
2022-09-24T13:17:50.340Z,1001.47
2022-09-24T13:20:27.098Z,1001.48
2022-09-24T13:23:00.183Z,1001.47
2022-09-24T13:25:33.255Z,1001.47
2022-09-24T13:28:06.486Z,1001.46
2022-09-24T13:30:39.402Z,1001.45
2022-09-24T13:33:12.202Z,1001.45
2022-09-24T13:35:45.256Z,1001.44
2022-09-24T13:38:18.246Z,1001.43
2022-09-24T13:40:51.458Z,1001.43
2022-09-24T13:43:24.234Z,1001.42
2022-09-24T13:45:57.500Z,1001.39
2022-09-24T13:48:44.224Z,1001.38
2022-09-24T13:51:20.229Z,1001.37
2022-09-24T13:53:53.534Z,1001.36
2022-09-24T13:56:26.272Z,1001.36
2022-09-24T13:58:59.354Z,1001.36
2022-09-24T14:01:32.702Z,1001.36
2022-09-24T14:04:05.271Z,1001.35
2022-09-24T14:06:38.263Z,1001.34
2022-09-24T14:09:11.293Z,1001.34
2022-09-24T14:11:44.322Z,1001.33
2022-09-24T14:14:17.251Z,1001.33
2022-09-24T14:16:50.620Z,1001.30
2022-09-24T14:19:23.639Z,1001.28
2022-09-24T14:21:56.611Z,1001.25
2022-09-24T14:24:29.340Z,1001.22
2022-09-24T14:27:02.324Z,1001.20
2022-09-24T14:29:35.316Z,1001.19
2022-09-24T14:32:08.684Z,1001.18
2022-09-24T14:34:41.611Z,1001.17
2022-09-24T14:37:14.584Z,1001.15
2022-09-24T14:39:47.477Z,1001.14
2022-09-24T14:42:20.697Z,1001.13
2022-09-24T14:44:53.631Z,1001.12
2022-09-24T14:47:29.525Z,1001.12
2022-09-24T14:50:02.653Z,1001.10
2022-09-24T14:52:35.802Z,1001.08
2022-09-24T14:55:09.506Z,1001.05
2022-09-24T14:57:48.041Z,1001.03
2022-09-24T15:00:15.394Z,1001.02
2022-09-24T15:02:48.679Z,1001.00
2022-09-24T15:05:21.497Z,1000.98
2022-09-24T15:07:54.381Z,1000.98
2022-09-24T15:10:27.678Z,1000.97
2022-09-24T15:13:00.706Z,1000.97
2022-09-24T15:15:33.422Z,1000.95
2022-09-24T15:18:06.464Z,1000.95
2022-09-24T15:20:39.740Z,1000.95
2022-09-24T15:23:12.691Z,1000.95
2022-09-24T15:25:45.692Z,1000.93
2022-09-24T15:28:18.340Z,1000.93
2022-09-24T15:30:51.708Z,1000.93
2022-09-24T15:33:24.724Z,1000.93
2022-09-24T15:35:57.706Z,1000.92
2022-09-24T15:38:30.538Z,1000.92
2022-09-24T15:41:03.734Z,1000.91
2022-09-24T15:43:36.560Z,1000.90
2022-09-24T15:46:09.487Z,1000.89
2022-09-24T15:48:42.523Z,1000.90
2022-09-24T15:51:15.825Z,1000.89
2022-09-24T15:53:48.690Z,1000.89
2022-09-24T15:56:21.797Z,1000.92
2022-09-24T15:58:54.814Z,1000.92
2022-09-24T16:01:27.809Z,1000.92
2022-09-24T16:04:06.966Z,1000.92
2022-09-24T16:06:39.759Z,1000.92
2022-09-24T16:09:12.727Z,1000.92
2022-09-24T16:11:45.639Z,1000.93
2022-09-24T16:14:18.662Z,1000.94
2022-09-24T16:16:51.820Z,1000.94
2022-09-24T16:19:24.639Z,1000.95
2022-09-24T16:21:57.706Z,1000.95
2022-09-24T16:24:30.733Z,1000.94
2022-09-24T16:27:03.581Z,1000.94
2022-09-24T16:29:36.517Z,1000.93
2022-09-24T16:32:09.727Z,1000.95
2022-09-24T16:34:42.478Z,1000.96
2022-09-24T16:37:15.739Z,1000.99
2022-09-24T16:39:48.517Z,1001.01
2022-09-24T16:42:22.043Z,1001.04
2022-09-24T16:44:55.745Z,1001.06
2022-09-24T16:47:42.580Z,1001.09
2022-09-24T16:50:15.573Z,1001.11
2022-09-24T16:52:48.836Z,1001.14
2022-09-24T16:55:21.745Z,1001.15
2022-09-24T16:57:54.785Z,1001.16
2022-09-24T17:00:27.786Z,1001.18
2022-09-24T17:03:14.489Z,1001.20
2022-09-24T17:05:47.851Z,1001.21
2022-09-24T17:08:20.797Z,1001.24
2022-09-24T17:10:58.165Z,1001.27
2022-09-24T17:13:26.576Z,1001.27
2022-09-24T17:15:59.743Z,1001.26
2022-09-24T17:18:32.686Z,1001.27
2022-09-24T17:21:05.636Z,1001.27
2022-09-24T17:23:38.647Z,1001.27
2022-09-24T17:26:11.551Z,1001.30
2022-09-24T17:28:50.432Z,1001.30
2022-09-24T17:31:23.700Z,1001.31
2022-09-24T17:33:56.914Z,1001.31
2022-09-24T17:36:29.716Z,1001.32
2022-09-24T17:39:02.870Z,1001.34
2022-09-24T17:41:35.649Z,1001.34
2022-09-24T17:44:08.898Z,1001.36
2022-09-24T17:46:41.818Z,1001.36
2022-09-24T17:49:14.778Z,1001.37
2022-09-24T17:51:47.712Z,1001.38
2022-09-24T17:54:20.656Z,1001.38
2022-09-24T17:56:53.727Z,1001.40
2022-09-24T17:59:27.277Z,1001.40
2022-09-24T18:02:00.080Z,1001.42
2022-09-24T18:04:32.565Z,1001.44
2022-09-24T18:07:05.816Z,1001.46
2022-09-24T18:09:40.681Z,1001.47
2022-09-24T18:12:17.155Z,1001.49
2022-09-24T18:14:46.586Z,1001.50
2022-09-24T18:17:19.638Z,1001.52
2022-09-24T18:19:53.003Z,1001.54
2022-09-24T18:22:25.817Z,1001.55
2022-09-24T18:24:58.898Z,1001.54
2022-09-24T18:27:32.964Z,1001.52
2022-09-24T18:30:05.741Z,1001.51
2022-09-24T18:32:38.745Z,1001.50
2022-09-24T18:35:11.637Z,1001.49
2022-09-24T18:37:44.862Z,1001.50
2022-09-24T18:40:17.680Z,1001.48
2022-09-24T18:42:50.808Z,1001.51
2022-09-24T18:45:23.684Z,1001.56
2022-09-24T18:47:56.798Z,1001.60
2022-09-24T18:50:30.047Z,1001.63
2022-09-24T18:53:03.030Z,1001.68
2022-09-24T18:55:35.678Z,1001.72
2022-09-24T18:58:08.866Z,1001.73
2022-09-24T19:00:41.800Z,1001.74
2022-09-24T19:03:15.990Z,1001.75
2022-09-24T19:05:48.915Z,1001.75
2022-09-24T19:08:22.154Z,1001.77
2022-09-24T19:10:54.834Z,1001.78
2022-09-24T19:13:28.010Z,1001.80
2022-09-24T19:16:00.790Z,1001.82
2022-09-24T19:18:33.856Z,1001.81
2022-09-24T19:21:06.776Z,1001.81
2022-09-24T19:23:39.831Z,1001.82
2022-09-24T19:26:12.686Z,1001.84
2022-09-24T19:28:45.742Z,1001.86
2022-09-24T19:31:18.801Z,1001.87
2022-09-24T19:33:51.827Z,1001.88
2022-09-24T19:36:24.792Z,1001.90
2022-09-24T19:38:57.746Z,1001.93
2022-09-24T19:41:30.957Z,1001.96
2022-09-24T19:44:08.606Z,1001.98
2022-09-24T19:46:37.249Z,1002.01
2022-09-24T19:49:09.823Z,1002.02
2022-09-24T19:51:43.047Z,1002.04
2022-09-24T19:54:16.065Z,1002.08
2022-09-24T19:56:48.827Z,1002.11
2022-09-24T19:59:21.940Z,1002.12
2022-09-24T20:01:54.758Z,1002.16
2022-09-24T20:04:27.848Z,1002.23
2022-09-24T20:07:05.681Z,1002.32
2022-09-24T20:09:33.992Z,1002.40
2022-09-24T20:12:06.935Z,1002.46
2022-09-24T20:14:39.927Z,1002.52
2022-09-24T20:17:18.862Z,1002.56
2022-09-24T20:19:52.085Z,1002.60
2022-09-24T20:22:25.123Z,1002.62
2022-09-24T20:24:58.006Z,1002.66
2022-09-24T20:27:31.071Z,1002.69
2022-09-24T20:30:03.926Z,1002.70
2022-09-24T20:32:37.142Z,1002.70
2022-09-24T20:35:10.190Z,1002.70
2022-09-24T20:37:42.994Z,1002.71
2022-09-24T20:40:15.896Z,1002.72
2022-09-24T20:42:49.186Z,1002.73
2022-09-24T20:45:22.121Z,1002.72
2022-09-24T20:47:55.193Z,1002.73
2022-09-24T20:50:27.834Z,1002.73
2022-09-24T20:53:01.235Z,1002.72
2022-09-24T20:55:34.175Z,1002.71
2022-09-24T20:58:07.055Z,1002.70
2022-09-24T21:00:40.026Z,1002.69
2022-09-24T21:03:39.191Z,1002.67
2022-09-24T21:05:46.300Z,1002.67
2022-09-24T21:08:20.194Z,1002.66
2022-09-24T21:10:53.346Z,1002.64
2022-09-24T21:13:26.193Z,1002.62
2022-09-24T21:15:59.251Z,1002.61
2022-09-24T21:18:39.569Z,1002.60
2022-09-24T21:21:05.208Z,1002.60
2022-09-24T21:23:38.267Z,1002.61
2022-09-24T21:26:11.246Z,1002.61
2022-09-24T21:28:44.276Z,1002.61
2022-09-24T21:31:17.371Z,1002.60
2022-09-24T21:33:50.246Z,1002.59
2022-09-24T21:36:23.217Z,1002.58
2022-09-24T21:38:56.190Z,1002.57
2022-09-24T21:41:29.295Z,1002.55
2022-09-24T21:44:02.338Z,1002.54
2022-09-24T21:46:35.294Z,1002.54
2022-09-24T21:49:08.346Z,1002.53
2022-09-24T21:51:42.239Z,1002.51
2022-09-24T21:54:15.211Z,1002.49
2022-09-24T21:56:48.262Z,1002.47
2022-09-24T21:59:21.312Z,1002.46
2022-09-24T22:01:54.353Z,1002.44
2022-09-24T22:04:27.315Z,1002.44
2022-09-24T22:07:00.243Z,1002.45
2022-09-24T22:09:33.204Z,1002.45
2022-09-24T22:12:06.258Z,1002.46
2022-09-24T22:14:39.266Z,1002.45
2022-09-24T22:17:12.323Z,1002.45
2022-09-24T22:19:45.306Z,1002.45
2022-09-24T22:22:18.201Z,1002.45
2022-09-24T22:27:41.340Z,1002.44
2022-09-24T22:30:14.225Z,1002.43
2022-09-24T22:32:47.349Z,1002.41
2022-09-24T22:35:20.241Z,1002.39
2022-09-24T22:37:53.365Z,1002.38
2022-09-24T22:40:26.391Z,1002.39
2022-09-24T22:42:59.316Z,1002.39
2022-09-24T22:45:32.340Z,1002.40
2022-09-24T22:48:05.281Z,1002.40
2022-09-24T22:50:38.186Z,1002.40
2022-09-24T22:53:11.274Z,1002.40
2022-09-24T22:55:50.475Z,1002.38
2022-09-24T22:58:20.287Z,1002.37
2022-09-24T23:00:53.415Z,1002.36
2022-09-24T23:03:26.405Z,1002.37
2022-09-24T23:06:02.315Z,1002.38
2022-09-24T23:08:35.365Z,1002.38
2022-09-24T23:11:08.342Z,1002.37
2022-09-24T23:13:41.451Z,1002.38
2022-09-24T23:16:14.387Z,1002.36
2022-09-24T23:18:47.378Z,1002.36
2022-09-24T23:21:20.379Z,1002.35
2022-09-24T23:23:53.363Z,1002.34
2022-09-24T23:26:26.340Z,1002.34
2022-09-24T23:28:59.455Z,1002.33
2022-09-24T23:31:32.341Z,1002.32
2022-09-24T23:34:05.346Z,1002.31
2022-09-24T23:36:38.308Z,1002.30
2022-09-24T23:39:11.403Z,1002.30
2022-09-24T23:41:44.416Z,1002.30
2022-09-24T23:44:17.431Z,1002.27
2022-09-24T23:46:50.447Z,1002.27
2022-09-24T23:49:23.393Z,1002.27
2022-09-24T23:51:56.477Z,1002.26
2022-09-24T23:54:29.343Z,1002.27
2022-09-24T23:57:02.412Z,1002.27
2022-09-24T23:59:35.387Z,1002.27
